Fall River, Kansas
Current Conditions -  °F | °C
As of 8:52 PM on Saturday 22 Nov 2014 (Local Time) from KCNU Reporting Station
Overcast Overcast  
Wind Chill: 56°   Ceiling: 1200
Heat Index: 56°   Visibility: 10mi
Dew Point: 52°   Wind: 18mph
Humidity: 87%   Direction: 180°S
Pressure: 29.76"   Gusts: NA
Location:  37.61°N, 96.03°W
Report Text: KCNU 230252Z AUTO 18016KT 10SM OVC012 13/11 A2976 RMK AO2 SLP073 T01330111 58014
Loading
Personal Weather Stations






























Interactive Weather Map New forecast layout! Learn more

10-Day Weather Forecast

Advertisements
Track Severe Weather on mobile